Juiz de Fora, Brazil
Current Conditions -  °F | °C
As of 1:35 PM on Tuesday 21 Oct 2014 (Local Time) from SBBQ Reporting Station
Haze Haze  
Wind Chill: 63°   Ceiling: 500
Heat Index: 63°   Visibility: 1.2mi
Dew Point: 59°   Wind: 8mph
Humidity: 88%   Direction: 140°SE
Pressure: 30.21"   Gusts: NA
Location:  21.75°S, 43.36°W
Report Text: SBBQ 211535Z 14007KT 2000 BR OVC005 17/15 Q1023
Loading
Personal Weather Stations






























Interactive Weather Map
Tropical Storm Tracking
New forecast layout! Learn more

10-Day Weather Forecast

Advertisements
Track Severe Weather on mobile